createdAt,value
2018-11-10T00:00:56.491Z,40.35
2018-11-10T00:03:25.661Z,35.98
2018-11-10T00:05:54.176Z,39.35
2018-11-10T00:08:22.718Z,39.67
2018-11-10T00:10:51.371Z,41.75
2018-11-10T00:13:20.168Z,34.10
2018-11-10T00:15:48.834Z,41.35
2018-11-10T00:18:17.325Z,41.58
2018-11-10T00:20:46.150Z,40.35
2018-11-10T00:23:14.663Z,40.95
2018-11-10T00:25:43.824Z,50.20
2018-11-10T00:28:13.041Z,46.95
2018-11-10T00:30:41.580Z,49.85
2018-11-10T00:33:10.093Z,42.75
2018-11-10T00:35:38.949Z,44.80
2018-11-10T00:38:07.805Z,45.83
2018-11-10T00:40:36.994Z,41.75
2018-11-10T00:43:05.505Z,46.25
2018-11-10T00:45:34.013Z,47.48
2018-11-10T00:48:02.853Z,50.88
2018-11-10T00:50:31.369Z,50.05
2018-11-10T00:53:00.301Z,46.77
2018-11-10T00:55:29.481Z,42.00
2018-11-10T00:57:58.015Z,46.90
2018-11-10T01:01:51.119Z,46.13
2018-11-10T01:04:19.665Z,44.83
2018-11-10T01:06:48.531Z,49.08
2018-11-10T01:09:17.065Z,42.65
2018-11-10T01:11:45.621Z,48.08
2018-11-10T01:14:14.466Z,47.15
2018-11-10T01:16:43.079Z,52.17
2018-11-10T01:19:11.958Z,46.02
2018-11-10T01:21:40.456Z,47.93
2018-11-10T01:24:09.295Z,56.02
2018-11-10T01:26:38.489Z,54.90
2018-11-10T01:29:07.284Z,41.33
2018-11-10T01:31:35.881Z,48.05
2018-11-10T01:34:04.607Z,56.80
2018-11-10T01:36:33.448Z,51.10
2018-11-10T01:39:03.268Z,47.43
2018-11-10T01:41:32.106Z,56.00
2018-11-10T01:44:00.982Z,58.08
2018-11-10T01:46:29.529Z,51.25
2018-11-10T01:48:58.823Z,54.23
2018-11-10T01:51:27.659Z,54.70
2018-11-10T01:53:56.162Z,50.17
2018-11-10T01:56:25.005Z,50.83
2018-11-10T01:58:53.897Z,64.37
2018-11-10T02:01:22.749Z,57.67
2018-11-10T02:03:51.268Z,61.42
2018-11-10T02:06:20.488Z,62.85
2018-11-10T02:08:49.283Z,63.05
2018-11-10T02:11:18.185Z,64.65
2018-11-10T02:13:47.411Z,62.43
2018-11-10T02:16:15.949Z,56.20
2018-11-10T02:18:44.821Z,59.98
2018-11-10T02:21:13.348Z,62.85
2018-11-10T02:23:41.845Z,59.60
2018-11-10T02:26:10.378Z,66.55
2018-11-10T02:28:39.559Z,64.80
2018-11-10T02:31:08.834Z,63.70
2018-11-10T02:33:37.492Z,60.40
2018-11-10T02:36:07.166Z,61.88
2018-11-10T02:38:35.977Z,67.12
2018-11-10T02:41:05.849Z,66.92
2018-11-10T02:43:36.945Z,66.87
2018-11-10T02:46:05.477Z,66.87
2018-11-10T02:48:34.031Z,84.52
2018-11-10T02:51:02.890Z,75.67
2018-11-10T02:53:31.410Z,68.05
2018-11-10T02:55:59.993Z,69.62
2018-11-10T02:58:28.829Z,70.87
2018-11-10T03:00:57.408Z,68.57
2018-11-10T03:03:25.906Z,71.20
2018-11-10T03:05:54.740Z,75.83
2018-11-10T03:08:23.242Z,81.08
2018-11-10T03:10:51.828Z,72.95
2018-11-10T03:13:20.775Z,71.90
2018-11-10T03:15:49.268Z,80.92
2018-11-10T03:18:18.145Z,79.50
2018-11-10T03:20:47.008Z,88.82
2018-11-10T03:23:15.554Z,83.52
2018-11-10T03:25:44.415Z,83.50
2018-11-10T03:28:12.943Z,95.55
2018-11-10T03:30:41.469Z,73.47
2018-11-10T03:33:09.998Z,76.65
2018-11-10T03:35:38.846Z,80.25
2018-11-10T03:38:07.374Z,77.85
2018-11-10T03:40:36.272Z,86.47
2018-11-10T03:43:04.821Z,82.42
2018-11-10T03:45:33.644Z,78.62
2018-11-10T03:48:02.478Z,89.07
2018-11-10T03:50:30.981Z,82.78
2018-11-10T03:52:59.814Z,88.95
2018-11-10T03:55:28.682Z,94.97
2018-11-10T03:57:57.210Z,85.47
2018-11-10T04:00:26.069Z,84.45
2018-11-10T04:02:54.590Z,96.85
2018-11-10T04:05:23.765Z,81.17
2018-11-10T04:07:52.297Z,82.25
2018-11-10T04:10:20.817Z,90.28
2018-11-10T04:12:49.681Z,88.33
2018-11-10T04:15:18.511Z,90.80
2018-11-10T04:17:53.384Z,95.20
2018-11-10T04:20:21.925Z,87.62
2018-11-10T04:22:50.780Z,86.67
2018-11-10T04:25:19.277Z,92.10
2018-11-10T04:27:48.458Z,80.50
2018-11-10T04:30:16.991Z,90.38
2018-11-10T04:32:45.829Z,86.00
2018-11-10T04:35:14.344Z,80.40
2018-11-10T04:37:43.205Z,87.53
2018-11-10T04:40:12.455Z,90.47
2018-11-10T04:42:41.706Z,75.62
2018-11-10T04:45:11.866Z,88.47
2018-11-10T04:47:40.378Z,88.55
2018-11-10T04:50:10.695Z,83.20
2018-11-10T04:52:39.324Z,77.25
2018-11-10T04:55:08.629Z,81.08
2018-11-10T04:57:37.856Z,87.62
2018-11-10T05:00:08.761Z,81.97
2018-11-10T05:02:37.607Z,81.05
2018-11-10T05:05:07.022Z,86.87
2018-11-10T05:07:35.613Z,81.28
2018-11-10T05:10:04.237Z,81.50
2018-11-10T05:12:33.061Z,89.47
2018-11-10T05:15:01.553Z,80.80
2018-11-10T05:17:30.073Z,73.70
2018-11-10T05:19:58.959Z,88.30
2018-11-10T05:22:27.457Z,81.75
2018-11-10T05:24:55.973Z,85.38
2018-11-10T05:27:24.454Z,80.05
2018-11-10T05:29:52.958Z,82.80
2018-11-10T05:32:21.822Z,88.55
2018-11-10T05:34:50.649Z,80.67
2018-11-10T05:37:19.472Z,79.00
2018-11-10T05:39:47.956Z,80.65
2018-11-10T05:42:16.489Z,78.67
2018-11-10T05:44:45.345Z,78.33
2018-11-10T05:47:13.840Z,81.40
2018-11-10T05:49:42.341Z,77.62
2018-11-10T05:52:11.214Z,81.72
2018-11-10T05:54:40.014Z,74.42
2018-11-10T05:57:09.311Z,78.72
2018-11-10T05:59:39.009Z,77.20
2018-11-10T06:02:08.193Z,86.28
2018-11-10T06:04:36.682Z,76.55
2018-11-10T06:07:05.605Z,76.95
2018-11-10T06:09:34.213Z,77.37
2018-11-10T06:12:02.822Z,73.35
2018-11-10T06:14:31.320Z,77.15
2018-11-10T06:17:00.230Z,68.85
2018-11-10T06:19:28.737Z,73.35
2018-11-10T06:21:57.224Z,72.42
2018-11-10T06:24:25.737Z,67.08
2018-11-10T06:26:55.635Z,69.72
2018-11-10T06:29:24.545Z,73.45
2018-11-10T06:31:53.682Z,76.20
2018-11-10T06:34:23.117Z,64.47
2018-11-10T06:36:51.612Z,73.50
2018-11-10T06:39:20.457Z,73.97
2018-11-10T06:41:49.325Z,70.05
2018-11-10T06:44:18.165Z,70.03
2018-11-10T06:46:46.667Z,70.80
2018-11-10T06:49:15.250Z,65.67
2018-11-10T06:51:44.125Z,73.60
2018-11-10T06:54:12.642Z,67.35
2018-11-10T06:56:41.493Z,69.45
2018-11-10T06:59:10.329Z,63.63
2018-11-10T07:01:40.181Z,67.17
2018-11-10T07:04:09.545Z,65.37
2018-11-10T07:06:38.364Z,72.55
2018-11-10T07:09:08.810Z,73.12
2018-11-10T07:11:37.394Z,70.32
2018-11-10T07:14:06.224Z,69.58
2018-11-10T07:16:34.757Z,66.40
2018-11-10T07:19:03.622Z,64.53
2018-11-10T07:21:32.124Z,62.90
2018-11-10T07:24:00.620Z,60.80
2018-11-10T07:26:29.169Z,61.10
2018-11-10T07:28:57.682Z,59.95
2018-11-10T07:31:26.538Z,59.83
2018-11-10T07:33:55.398Z,57.23
2018-11-10T07:36:24.628Z,63.05
2018-11-10T07:38:53.143Z,59.30
2018-11-10T07:41:21.642Z,58.02
2018-11-10T07:43:50.813Z,58.60
2018-11-10T07:46:20.102Z,54.30
2018-11-10T07:48:49.437Z,54.25
2018-11-10T07:51:18.385Z,56.05
2018-11-10T07:53:47.070Z,56.05
2018-11-10T07:56:16.199Z,55.95
2018-11-10T07:58:44.705Z,65.05
2018-11-10T08:01:13.552Z,57.67
2018-11-10T08:03:42.050Z,62.73
2018-11-10T08:06:10.860Z,51.10
2018-11-10T08:08:40.162Z,58.73
2018-11-10T08:11:09.309Z,57.17
2018-11-10T08:13:37.821Z,66.92
2018-11-10T08:16:06.654Z,59.15
2018-11-10T08:18:35.229Z,54.83
2018-11-10T08:21:04.241Z,53.95
2018-11-10T08:23:33.068Z,58.40
2018-11-10T08:26:03.137Z,48.80
2018-11-10T08:28:32.640Z,45.67
2018-11-10T08:31:01.163Z,46.73
2018-11-10T08:33:30.184Z,53.83
2018-11-10T08:35:59.031Z,51.10
2018-11-10T08:38:27.877Z,48.02
2018-11-10T08:40:56.378Z,45.23
2018-11-10T08:43:27.859Z,46.68
2018-11-10T08:45:56.821Z,46.85
2018-11-10T08:48:25.675Z,49.55
2018-11-10T08:50:54.214Z,41.73
2018-11-10T08:53:23.205Z,42.10
2018-11-10T08:55:51.706Z,45.52
2018-11-10T08:58:21.236Z,43.80
2018-11-10T09:00:49.739Z,47.62
2018-11-10T09:03:18.906Z,46.42
2018-11-10T09:05:48.003Z,37.08
2018-11-10T09:08:16.642Z,42.95
2018-11-10T09:10:46.086Z,40.38
2018-11-10T09:13:14.929Z,43.25
2018-11-10T09:15:44.280Z,44.77
2018-11-10T09:18:13.089Z,39.88
2018-11-10T09:20:41.639Z,42.40
2018-11-10T09:23:10.158Z,39.23
2018-11-10T09:25:39.333Z,42.40
2018-11-10T09:28:08.162Z,36.80
2018-11-10T09:30:37.063Z,38.45
2018-11-10T09:33:05.733Z,44.53
2018-11-10T09:35:34.842Z,33.25
2018-11-10T09:38:03.698Z,38.80
2018-11-10T09:40:32.521Z,42.50
2018-11-10T09:43:01.697Z,39.25
2018-11-10T09:45:30.540Z,37.28
2018-11-10T09:47:59.394Z,34.78
2018-11-10T09:50:28.617Z,37.35
2018-11-10T09:52:57.459Z,41.95
2018-11-10T09:55:27.748Z,38.30
2018-11-10T09:57:56.606Z,36.05
2018-11-10T10:00:25.140Z,31.75
2018-11-10T10:02:53.666Z,35.80
2018-11-10T10:05:22.395Z,37.00
2018-11-10T10:07:50.965Z,32.33
2018-11-10T10:10:20.682Z,34.38
2018-11-10T10:12:50.134Z,37.78
2018-11-10T10:15:22.518Z,32.38
2018-11-10T10:17:51.852Z,33.08
2018-11-10T10:20:21.130Z,32.65
2018-11-10T10:22:50.579Z,29.85
2018-11-10T10:25:20.146Z,33.13
2018-11-10T10:27:51.120Z,32.65
2018-11-10T10:30:25.172Z,32.73
2018-11-10T10:32:59.594Z,31.62
2018-11-10T10:35:29.177Z,33.50
2018-11-10T10:47:34.427Z,33.83
2018-11-10T12:00:37.050Z,34.70
2018-11-10T12:03:06.634Z,36.08
2018-11-10T12:05:35.604Z,36.00
2018-11-10T12:08:04.265Z,39.90
2018-11-10T12:10:33.455Z,38.05
2018-11-10T12:13:02.570Z,34.95
2018-11-10T12:15:31.987Z,35.50
2018-11-10T12:18:00.969Z,42.70
2018-11-10T12:20:30.157Z,38.28
2018-11-10T12:33:05.286Z,38.88
2018-11-10T12:35:33.957Z,39.23
2018-11-10T12:38:04.109Z,38.28
2018-11-10T12:40:32.827Z,38.33
2018-11-10T12:46:23.379Z,40.08
2018-11-10T14:08:10.863Z,45.20
2018-11-10T14:25:24.992Z,42.30
2018-11-10T14:28:01.609Z,43.02
2018-11-10T14:30:58.033Z,42.67
2018-11-10T14:33:26.640Z,41.40
2018-11-10T14:35:55.613Z,37.67
2018-11-10T14:41:18.553Z,44.53
2018-11-10T14:43:48.241Z,39.92
2018-11-10T14:46:17.218Z,40.73
2018-11-10T14:48:45.868Z,44.13
2018-11-10T14:51:15.142Z,46.65
2018-11-10T14:53:45.067Z,43.05
2018-11-10T14:56:14.516Z,43.68
2018-11-10T14:58:47.428Z,44.35
2018-11-10T15:01:16.445Z,53.13
2018-11-10T15:03:44.992Z,49.08
2018-11-10T15:06:13.931Z,46.42
2018-11-10T15:08:42.546Z,53.42
2018-11-10T15:11:11.531Z,44.63
2018-11-10T15:13:40.973Z,44.93
2018-11-10T15:16:09.894Z,45.80
2018-11-10T15:18:38.850Z,49.93
2018-11-10T15:21:07.726Z,46.92
2018-11-10T15:23:36.295Z,51.30
2018-11-10T15:26:05.305Z,52.05
2018-11-10T15:28:33.903Z,50.20
2018-11-10T15:31:03.527Z,55.52
2018-11-10T15:33:32.667Z,51.15
2018-11-10T15:36:01.231Z,50.90
2018-11-10T15:38:30.485Z,50.52
2018-11-10T15:40:59.423Z,47.58
2018-11-10T15:43:28.010Z,50.03
2018-11-10T15:45:56.635Z,52.60
2018-11-10T15:48:25.273Z,55.83
2018-11-10T15:50:53.877Z,44.85
2018-11-10T15:53:22.640Z,53.00
2018-11-10T15:55:51.900Z,53.98
2018-11-10T15:58:20.463Z,54.77
2018-11-10T16:00:49.396Z,51.92
2018-11-10T16:03:17.957Z,53.02
2018-11-10T16:05:47.161Z,50.95
2018-11-10T16:08:15.783Z,53.50
2018-11-10T16:10:46.026Z,51.75
2018-11-10T16:13:14.567Z,58.42
2018-11-10T16:15:43.111Z,49.33
2018-11-10T16:18:11.672Z,57.80
2018-11-10T16:20:40.247Z,52.78
2018-11-10T16:23:09.598Z,59.80
2018-11-10T16:25:38.791Z,81.80
2018-11-10T16:28:07.637Z,60.88
2018-11-10T16:30:36.176Z,61.10
2018-11-10T16:33:04.855Z,56.45
2018-11-10T16:35:33.381Z,57.23
2018-11-10T16:38:02.323Z,71.07
2018-11-10T16:40:31.204Z,61.35
2018-11-10T16:42:59.801Z,61.50
2018-11-10T16:45:28.403Z,64.15
2018-11-10T16:47:57.277Z,65.65
2018-11-10T16:50:25.845Z,67.12
2018-11-10T16:52:54.357Z,64.00
2018-11-10T16:55:23.804Z,66.57
2018-11-10T16:57:52.350Z,66.85
2018-11-10T17:00:21.289Z,62.73
2018-11-10T17:02:50.135Z,70.45
2018-11-10T17:05:19.361Z,62.20
2018-11-10T17:07:48.697Z,68.70
2018-11-10T17:10:18.572Z,65.75
2018-11-10T17:12:47.139Z,82.02
2018-11-10T17:15:15.712Z,73.07
2018-11-10T17:17:44.725Z,63.08
2018-11-10T17:20:16.162Z,66.95
2018-11-10T17:22:44.993Z,69.67
2018-11-10T17:25:15.173Z,70.20
2018-11-10T17:27:44.267Z,61.30
2018-11-10T17:30:15.577Z,77.82
2018-11-10T17:32:44.668Z,76.22
2018-11-10T17:35:14.311Z,72.95
2018-11-10T17:37:44.293Z,79.53
2018-11-10T17:40:14.579Z,75.00
2018-11-10T17:42:43.991Z,72.35
2018-11-10T17:45:14.514Z,70.65
2018-11-10T17:47:45.766Z,70.17
2018-11-10T17:50:17.301Z,73.10
2018-11-10T17:52:46.044Z,71.50
2018-11-10T17:55:16.460Z,74.97
2018-11-10T17:57:46.573Z,75.17
2018-11-10T18:00:15.233Z,70.47
2018-11-10T18:02:44.453Z,74.53
2018-11-10T18:05:17.941Z,73.92
2018-11-10T18:07:54.065Z,72.58
2018-11-10T18:10:23.848Z,71.72
2018-11-10T18:12:52.797Z,66.77
2018-11-10T18:15:22.731Z,67.58
2018-11-10T18:17:51.577Z,74.92
2018-11-10T18:20:20.573Z,71.67
2018-11-10T18:22:49.113Z,68.17
2018-11-10T18:25:20.275Z,66.10
2018-11-10T18:27:49.239Z,67.40
2018-11-10T18:30:18.113Z,67.20
2018-11-10T18:32:47.042Z,65.87
2018-11-10T18:35:15.996Z,73.22
2018-11-10T18:37:44.846Z,63.08
2018-11-10T18:40:13.376Z,66.90
2018-11-10T18:42:41.907Z,65.50
2018-11-10T18:45:11.635Z,69.67
2018-11-10T18:47:41.380Z,77.27
2018-11-10T18:50:11.996Z,71.82
2018-11-10T18:52:47.618Z,70.97
2018-11-10T18:55:17.467Z,71.40
2018-11-10T18:57:46.641Z,70.60
2018-11-10T19:00:16.829Z,65.75
2018-11-10T19:02:46.466Z,73.75
2018-11-10T19:05:16.307Z,70.05
2018-11-10T19:07:45.951Z,72.05
2018-11-10T19:10:16.333Z,69.75
2018-11-10T19:12:44.952Z,67.97
2018-11-10T19:15:16.823Z,65.10
2018-11-10T19:17:45.755Z,68.62
2018-11-10T19:20:15.014Z,68.60
2018-11-10T19:22:43.859Z,79.22
2018-11-10T19:25:13.669Z,77.12
2018-11-10T19:27:42.197Z,63.73
2018-11-10T19:30:17.079Z,64.30
2018-11-10T19:32:46.285Z,69.20
2018-11-10T19:35:16.003Z,65.03
2018-11-10T19:37:45.376Z,71.75
2018-11-10T19:40:14.275Z,83.25
2018-11-10T19:42:43.868Z,66.92
2018-11-10T19:45:12.877Z,72.53
2018-11-10T19:47:43.031Z,63.20
2018-11-10T19:50:12.294Z,66.97
2018-11-10T19:52:42.099Z,70.17
2018-11-10T19:55:13.034Z,63.20
2018-11-10T19:57:42.419Z,60.23
2018-11-10T20:00:15.661Z,63.45
2018-11-10T20:02:44.171Z,61.45
2018-11-10T20:05:14.170Z,72.35
2018-11-10T20:07:42.760Z,62.43
2018-11-10T20:10:12.169Z,71.15
2018-11-10T20:12:41.575Z,70.40
2018-11-10T20:15:11.881Z,65.95
2018-11-10T20:17:41.393Z,67.85
2018-11-10T20:20:11.270Z,64.22
2018-11-10T20:22:40.186Z,67.05
2018-11-10T20:25:10.593Z,72.42
2018-11-10T20:27:40.658Z,61.75
2018-11-10T20:30:12.224Z,61.73
2018-11-10T20:32:41.878Z,61.85
2018-11-10T20:35:11.736Z,62.55
2018-11-10T20:37:41.799Z,62.38
2018-11-10T20:40:13.643Z,66.67
2018-11-10T20:42:42.845Z,64.65
2018-11-10T20:45:14.654Z,65.50
2018-11-10T20:47:43.330Z,64.40
2018-11-10T20:50:12.862Z,65.50
2018-11-10T20:52:41.396Z,61.23
2018-11-10T20:55:10.993Z,60.52
2018-11-10T20:57:40.327Z,64.00
2018-11-10T21:00:11.012Z,62.62
2018-11-10T21:02:40.991Z,64.20
2018-11-10T21:05:12.433Z,61.02
2018-11-10T21:07:40.973Z,63.20
2018-11-10T21:10:12.197Z,62.90
2018-11-10T21:12:41.291Z,62.27
2018-11-10T21:15:10.568Z,61.80
2018-11-10T21:17:39.091Z,66.25
2018-11-10T21:20:09.612Z,65.08
2018-11-10T21:22:38.959Z,61.77
2018-11-10T21:25:09.641Z,60.80
2018-11-10T21:27:39.137Z,62.80
2018-11-10T21:30:10.602Z,56.13
2018-11-10T21:32:39.654Z,63.08
2018-11-10T21:35:08.757Z,68.35
2018-11-10T21:37:37.990Z,61.25
2018-11-10T21:40:09.033Z,59.42
2018-11-10T21:42:42.466Z,65.25
2018-11-10T21:45:12.517Z,59.88
2018-11-10T21:47:41.236Z,56.77
2018-11-10T21:50:14.717Z,62.08
2018-11-10T21:52:44.937Z,60.75
2018-11-10T21:55:15.776Z,66.67
2018-11-10T21:57:45.081Z,58.15
2018-11-10T22:00:15.806Z,57.27
2018-11-10T22:02:44.935Z,56.75
2018-11-10T22:05:13.598Z,54.03
2018-11-10T22:07:42.472Z,54.15
2018-11-10T22:10:13.044Z,53.58
2018-11-10T22:12:41.777Z,57.35
2018-11-10T22:15:13.085Z,62.73
2018-11-10T22:17:42.658Z,50.45
2018-11-10T22:20:13.522Z,53.55
2018-11-10T22:22:42.172Z,48.95
2018-11-10T22:25:12.217Z,56.60
2018-11-10T22:27:43.154Z,52.83
2018-11-10T22:30:14.308Z,51.20
2018-11-10T22:32:44.107Z,47.55
2018-11-10T22:35:14.006Z,55.52
2018-11-10T22:37:43.237Z,58.45
2018-11-10T22:40:20.005Z,54.88
2018-11-10T22:42:48.877Z,59.13
2018-11-10T22:45:19.746Z,60.63
2018-11-10T22:47:48.764Z,53.92
2018-11-10T22:50:19.157Z,51.42
2018-11-10T22:52:47.691Z,55.70
2018-11-10T22:55:16.224Z,53.70
2018-11-10T22:57:45.450Z,51.23
2018-11-10T23:02:58.350Z,54.33
2018-11-10T23:05:29.490Z,50.63
2018-11-10T23:07:58.017Z,52.48
2018-11-10T23:10:26.906Z,51.13
2018-11-10T23:12:55.414Z,52.93
2018-11-10T23:15:23.956Z,52.93
2018-11-10T23:17:52.819Z,53.92
2018-11-10T23:20:21.658Z,51.88
2018-11-10T23:22:50.575Z,47.13
2018-11-10T23:25:20.004Z,48.35
2018-11-10T23:27:48.871Z,47.95
2018-11-10T23:30:19.987Z,52.78
2018-11-10T23:32:48.858Z,47.43
2018-11-10T23:35:18.050Z,49.27
2018-11-10T23:37:46.949Z,49.50
2018-11-10T23:40:16.555Z,50.60
2018-11-10T23:42:45.105Z,46.33
2018-11-10T23:45:14.446Z,46.37
2018-11-10T23:47:43.690Z,47.45
2018-11-10T23:50:13.837Z,46.25
2018-11-10T23:52:42.693Z,45.92
2018-11-10T23:55:12.395Z,43.15
2018-11-10T23:57:41.079Z,57.62
